Time;durP1;ratioP1;P1;durP2;ratioP2;P2;SDS_P1;SDS_P2;PMS_P1;PMS_P2;Temp;Humidity;BMP_temperature;BMP_pressure;BME280_temperature;BME280_humidity;BME280_pressure;Samples;Min_cycle;Max_cycle;Signal;HPM_P1;HPM_P2
2022/01/27 00:00:49;;;;;;;;;;;10.10;99.90;;;;;;5136114;27;19954;-77
2022/01/27 00:03:30;;;;;;;;;;;10.10;99.90;;;;;;5135376;27;19911;-78
2022/01/27 00:06:01;;;;;;;;;;;10.20;99.90;;;;;;5136006;27;19908;-78
2022/01/27 00:08:37;;;;;;;;;;;10.10;99.90;;;;;;5135580;27;19907;-78
2022/01/27 00:11:09;;;;;;;;;;;10.20;99.90;;;;;;5135546;27;20646;-76
2022/01/27 00:13:44;;;;;;;;;;;10.20;99.90;;;;;;5135880;27;19934;-79
2022/01/27 00:18:42;;;;;;;;;;;10.20;99.90;;;;;;5136486;27;19918;-78
2022/01/27 00:21:08;;;;;;;;;;;10.20;99.90;;;;;;5135356;27;19915;-78
2022/01/27 00:23:34;;;;;;;;;;;10.20;99.90;;;;;;5136355;27;20343;-78
2022/01/27 00:26:00;;;;;;;;;;;10.10;99.90;;;;;;5136626;27;20335;-78
2022/01/27 00:28:27;;;;;;;;;;;10.20;99.90;;;;;;5134747;27;19907;-78
2022/01/27 00:30:52;;;;;;;;;;;10.20;99.90;;;;;;5118014;27;19908;-79
2022/01/27 00:33:18;;;;;;;;;;;10.20;99.90;;;;;;5135262;27;19933;-78
2022/01/27 00:35:44;;;;;;;;;;;10.30;99.90;;;;;;5136089;27;19964;-77
2022/01/27 00:38:09;;;;;;;;;;;10.40;99.90;;;;;;5135549;27;19999;-77
2022/01/27 00:40:35;;;;;;;;;;;10.30;99.90;;;;;;5135726;27;19908;-77
2022/01/27 00:43:00;;;;;;;;;;;10.30;99.90;;;;;;5136035;27;19915;-78
2022/01/27 00:45:29;;;;;;;;;;;10.40;99.90;;;;;;5134739;27;19904;-78
2022/01/27 00:47:54;;;;;;;;;;;10.40;99.90;;;;;;5135950;27;20344;-77
2022/01/27 00:50:20;;;;;;;;;;;10.40;99.90;;;;;;5134494;27;19919;-77
2022/01/27 00:52:52;;;;;;;;;;;10.50;99.90;;;;;;5135177;27;20371;-77
2022/01/27 00:55:19;;;;;;;;;;;10.50;99.90;;;;;;5134668;27;19918;-77
2022/01/27 00:58:24;;;;;;;;;;;10.50;99.90;;;;;;5135537;27;19935;-76
2022/01/27 01:00:57;;;;;;;;;;;10.50;99.90;;;;;;5134890;27;20357;-77
2022/01/27 01:03:36;;;;;;;;;;;10.60;99.90;;;;;;5134630;27;20257;-77
2022/01/27 01:06:40;;;;;;;;;;;10.60;99.90;;;;;;5117093;27;19915;-77
2022/01/27 01:16:58;;;;;;;;;;;10.50;99.90;;;;;;5135110;27;19945;-76
2022/01/27 01:19:40;;;;;;;;;;;10.50;99.90;;;;;;5134023;27;19908;-76
2022/01/27 01:30:32;;;;;;;;;;;10.60;99.90;;;;;;5135230;27;19970;-78
2022/01/27 01:32:58;;;;;;;;;;;10.60;99.90;;;;;;5134444;27;19998;-78
2022/01/27 01:35:29;;;;;;;;;;;10.60;99.90;;;;;;5133737;27;19918;-78
2022/01/27 01:37:57;;;;;;;;;;;10.60;99.90;;;;;;5134906;27;19911;-78
2022/01/27 01:40:23;;;;;;;;;;;10.60;99.90;;;;;;5132501;27;20269;-78
2022/01/27 01:42:49;;;;;;;;;;;10.60;99.90;;;;;;5134906;27;19956;-79
2022/01/27 01:45:17;;;;;;;;;;;10.60;99.90;;;;;;5133844;27;19951;-77
2022/01/27 01:47:43;;;;;;;;;;;10.60;99.90;;;;;;5134529;27;19914;-77
2022/01/27 01:50:10;;;;;;;;;;;10.70;99.90;;;;;;5134234;27;19965;-76
2022/01/27 01:52:36;;;;;;;;;;;10.70;99.90;;;;;;5134045;27;19907;-78
2022/01/27 01:55:02;;;;;;;;;;;10.60;99.90;;;;;;5134486;27;19916;-78
2022/01/27 01:57:28;;;;;;;;;;;10.60;99.90;;;;;;5133291;27;20770;-78
2022/01/27 01:59:53;;;;;;;;;;;10.70;99.90;;;;;;5134444;27;19916;-78
2022/01/27 02:02:19;;;;;;;;;;;10.70;99.90;;;;;;5133606;27;19981;-78
2022/01/27 02:04:44;;;;;;;;;;;10.70;99.90;;;;;;5134450;27;20366;-79
2022/01/27 02:07:30;;;;;;;;;;;10.60;99.90;;;;;;5133553;27;19911;-77
2022/01/27 02:18:08;;;;;;;;;;;10.60;99.90;;;;;;5134372;27;19963;-78
2022/01/27 02:20:39;;;;;;;;;;;10.70;99.90;;;;;;5133197;27;19956;-78
2022/01/27 02:23:05;;;;;;;;;;;10.70;99.90;;;;;;5133840;27;19907;-77
2022/01/27 02:25:31;;;;;;;;;;;10.70;99.90;;;;;;5114784;27;19908;-78
2022/01/27 02:27:57;;;;;;;;;;;10.70;99.90;;;;;;5134033;27;19907;-78
2022/01/27 02:30:23;;;;;;;;;;;10.70;99.90;;;;;;5132951;27;19950;-78
2022/01/27 02:32:52;;;;;;;;;;;10.70;99.90;;;;;;5133753;27;19908;-77
2022/01/27 02:35:18;;;;;;;;;;;10.70;99.90;;;;;;5132671;27;19912;-77
2022/01/27 02:37:44;;;;;;;;;;;10.70;99.90;;;;;;5133592;27;19911;-77
2022/01/27 02:40:11;;;;;;;;;;;10.70;99.90;;;;;;5133831;27;20010;-77
2022/01/27 02:42:37;;;;;;;;;;;10.70;99.90;;;;;;5133225;27;19908;-78
2022/01/27 02:45:04;;;;;;;;;;;10.70;99.90;;;;;;5133363;27;20016;-78
2022/01/27 02:47:30;;;;;;;;;;;10.70;99.90;;;;;;5132826;27;19907;-77
2022/01/27 02:49:56;;;;;;;;;;;10.60;99.90;;;;;;5133231;27;19919;-78
2022/01/27 02:52:22;;;;;;;;;;;10.70;99.90;;;;;;5113959;28;19907;-78
2022/01/27 02:54:47;;;;;;;;;;;10.70;99.90;;;;;;5133112;27;19918;-78
2022/01/27 02:57:13;;;;;;;;;;;10.70;99.90;;;;;;5133246;28;19912;-77
2022/01/27 02:59:39;;;;;;;;;;;10.70;99.90;;;;;;5135217;28;19907;-78
2022/01/27 03:02:04;;;;;;;;;;;10.70;99.90;;;;;;5139089;28;19907;-79
2022/01/27 03:04:30;;;;;;;;;;;10.70;99.90;;;;;;5132632;28;19908;-78
2022/01/27 03:06:56;;;;;;;;;;;10.70;99.90;;;;;;5133467;28;19914;-78
2022/01/27 03:09:22;;;;;;;;;;;10.60;99.90;;;;;;5133683;28;19943;-77
2022/01/27 03:11:49;;;;;;;;;;;10.60;99.90;;;;;;5147541;28;19919;-78
2022/01/27 03:14:16;;;;;;;;;;;10.60;99.90;;;;;;5151910;28;19911;-76
2022/01/27 03:16:41;;;;;;;;;;;10.60;99.90;;;;;;5137423;28;20341;-78
2022/01/27 03:19:07;;;;;;;;;;;10.60;99.90;;;;;;5132938;28;19907;-78
2022/01/27 03:21:33;;;;;;;;;;;10.60;99.90;;;;;;5132586;28;19907;-78
2022/01/27 03:23:59;;;;;;;;;;;10.60;99.90;;;;;;5132721;28;19907;-76
2022/01/27 03:26:25;;;;;;;;;;;10.60;99.90;;;;;;5132484;28;19958;-77
2022/01/27 03:28:51;;;;;;;;;;;10.60;99.90;;;;;;5132930;28;20487;-77
2022/01/27 03:31:17;;;;;;;;;;;10.50;99.90;;;;;;5132849;28;19951;-76
2022/01/27 03:33:42;;;;;;;;;;;10.50;99.90;;;;;;5132638;28;19962;-77
2022/01/27 03:36:08;;;;;;;;;;;10.50;99.90;;;;;;5132952;28;19960;-77
2022/01/27 03:38:34;;;;;;;;;;;10.50;99.90;;;;;;5132367;28;19952;-77
2022/01/27 03:41:04;;;;;;;;;;;10.50;99.90;;;;;;5133223;28;19908;-77
2022/01/27 03:43:30;;;;;;;;;;;10.50;99.90;;;;;;5132454;28;19914;-77
2022/01/27 03:45:56;;;;;;;;;;;10.60;99.90;;;;;;5114310;28;19907;-77
2022/01/27 03:48:21;;;;;;;;;;;10.50;99.90;;;;;;5132024;28;19912;-77
2022/01/27 03:50:47;;;;;;;;;;;10.60;99.90;;;;;;5132554;27;20391;-77
2022/01/27 03:53:14;;;;;;;;;;;10.50;99.90;;;;;;5132883;28;19908;-77
2022/01/27 03:55:40;;;;;;;;;;;10.50;99.90;;;;;;5132080;28;19918;-77
2022/01/27 03:58:06;;;;;;;;;;;10.50;99.90;;;;;;5133001;28;19907;-77
2022/01/27 04:00:32;;;;;;;;;;;10.50;99.90;;;;;;5132214;28;19908;-77
2022/01/27 04:03:04;;;;;;;;;;;10.50;99.90;;;;;;5133148;27;19914;-77
2022/01/27 04:05:35;;;;;;;;;;;10.40;99.90;;;;;;5135955;27;19907;-77
2022/01/27 04:08:01;;;;;;;;;;;10.40;99.90;;;;;;5136621;27;19919;-77
2022/01/27 04:10:27;;;;;;;;;;;10.40;99.90;;;;;;5135799;27;19907;-76
2022/01/27 04:12:52;;;;;;;;;;;10.30;99.90;;;;;;5136411;27;19930;-76
2022/01/27 04:15:18;;;;;;;;;;;10.30;99.90;;;;;;5136091;27;20379;-75
2022/01/27 04:17:43;;;;;;;;;;;10.20;99.90;;;;;;5117892;27;19918;-77
2022/01/27 04:20:09;;;;;;;;;;;10.20;99.90;;;;;;5137421;27;19933;-77
2022/01/27 04:22:35;;;;;;;;;;;10.10;99.90;;;;;;5135547;27;20006;-76
2022/01/27 04:25:00;;;;;;;;;;;10.10;99.90;;;;;;5136009;27;19918;-76
2022/01/27 04:27:31;;;;;;;;;;;10.10;99.90;;;;;;5135530;27;19946;-77
2022/01/27 04:29:56;;;;;;;;;;;10.00;99.90;;;;;;5136192;27;19908;-77
2022/01/27 04:32:28;;;;;;;;;;;10.00;99.90;;;;;;5135605;27;19949;-76
2022/01/27 04:34:59;;;;;;;;;;;10.00;99.90;;;;;;5136101;27;19912;-77
2022/01/27 04:37:26;;;;;;;;;;;10.00;99.90;;;;;;5135395;27;19911;-77
2022/01/27 04:40:05;;;;;;;;;;;10.10;99.90;;;;;;5136029;27;19907;-78
2022/01/27 04:42:44;;;;;;;;;;;10.00;99.90;;;;;;5135138;27;19908;-77
2022/01/27 04:45:12;;;;;;;;;;;10.10;99.90;;;;;;5136044;27;19942;-77
2022/01/27 04:47:44;;;;;;;;;;;10.10;99.90;;;;;;5135478;27;20412;-77
2022/01/27 04:50:09;;;;;;;;;;;10.10;99.90;;;;;;5136022;27;19926;-77
2022/01/27 04:52:39;;;;;;;;;;;10.10;99.90;;;;;;5136644;27;19999;-77
2022/01/27 04:55:09;;;;;;;;;;;10.10;99.90;;;;;;5145076;27;19912;-77
2022/01/27 04:57:37;;;;;;;;;;;10.10;99.90;;;;;;5123134;27;19954;-76
2022/01/27 05:00:03;;;;;;;;;;;10.10;99.90;;;;;;5135684;27;19907;-77
2022/01/27 05:02:39;;;;;;;;;;;10.10;99.90;;;;;;5134886;27;19954;-76
2022/01/27 05:05:05;;;;;;;;;;;10.00;99.90;;;;;;5135528;27;19914;-77
2022/01/27 05:07:31;;;;;;;;;;;10.00;99.90;;;;;;5134709;27;19907;-77
2022/01/27 05:10:01;;;;;;;;;;;10.00;99.90;;;;;;5135446;27;19915;-77
2022/01/27 05:12:40;;;;;;;;;;;10.00;99.90;;;;;;5134287;27;19962;-77
2022/01/27 05:15:06;;;;;;;;;;;10.00;99.90;;;;;;5135326;27;19965;-77
2022/01/27 05:17:31;;;;;;;;;;;10.00;99.90;;;;;;5134498;27;19915;-77
2022/01/27 05:19:57;;;;;;;;;;;10.00;99.90;;;;;;5135243;27;20416;-76
2022/01/27 05:22:23;;;;;;;;;;;10.10;99.90;;;;;;5135296;27;20002;-76
2022/01/27 05:24:49;;;;;;;;;;;10.10;99.90;;;;;;5134832;27;19908;-76
2022/01/27 05:27:14;;;;;;;;;;;10.10;99.90;;;;;;5134649;27;19914;-79
2022/01/27 05:29:40;;;;;;;;;;;10.10;99.90;;;;;;5134000;27;20391;-75
2022/01/27 05:32:06;;;;;;;;;;;10.10;99.90;;;;;;5134909;27;20371;-76
2022/01/27 05:34:31;;;;;;;;;;;10.10;99.90;;;;;;5134208;27;20048;-77
2022/01/27 05:36:57;;;;;;;;;;;10.10;99.90;;;;;;5135435;27;19912;-77
2022/01/27 05:39:23;;;;;;;;;;;10.10;99.90;;;;;;5116411;27;20305;-77
2022/01/27 05:41:48;;;;;;;;;;;10.10;99.90;;;;;;5134108;27;19908;-77
2022/01/27 05:44:14;;;;;;;;;;;10.10;99.90;;;;;;5134530;27;20287;-76
2022/01/27 05:46:39;;;;;;;;;;;10.10;99.90;;;;;;5133689;27;19946;-77
2022/01/27 05:49:05;;;;;;;;;;;10.00;99.90;;;;;;5134260;27;19907;-77
2022/01/27 05:51:30;;;;;;;;;;;10.00;99.90;;;;;;5133684;27;19918;-78
2022/01/27 05:53:56;;;;;;;;;;;10.00;99.90;;;;;;5116029;27;19919;-77
2022/01/27 05:56:22;;;;;;;;;;;10.00;99.90;;;;;;5134131;27;20421;-78
2022/01/27 05:58:47;;;;;;;;;;;10.00;99.90;;;;;;5133652;27;19910;-77
2022/01/27 06:01:13;;;;;;;;;;;9.90;99.90;;;;;;5134236;27;20384;-78
2022/01/27 06:03:38;;;;;;;;;;;9.80;99.90;;;;;;5133466;27;19907;-76
2022/01/27 06:06:04;;;;;;;;;;;9.80;99.90;;;;;;5133991;27;19915;-77
2022/01/27 06:08:30;;;;;;;;;;;9.70;99.90;;;;;;5133408;27;19908;-76
2022/01/27 06:10:56;;;;;;;;;;;9.60;99.90;;;;;;5133839;27;20291;-76
2022/01/27 06:13:21;;;;;;;;;;;9.50;99.90;;;;;;5133764;27;19930;-77
2022/01/27 06:15:47;;;;;;;;;;;9.50;99.90;;;;;;5133396;27;19908;-76
2022/01/27 06:18:13;;;;;;;;;;;9.50;99.90;;;;;;5134279;27;19907;-76
2022/01/27 06:20:40;;;;;;;;;;;9.40;99.90;;;;;;5133135;27;20041;-76
2022/01/27 06:23:05;;;;;;;;;;;9.30;99.90;;;;;;5134158;27;19988;-76
2022/01/27 06:25:31;;;;;;;;;;;9.20;99.90;;;;;;5132564;27;20359;-75
2022/01/27 06:27:57;;;;;;;;;;;9.20;99.90;;;;;;5133163;27;19915;-76
2022/01/27 06:30:22;;;;;;;;;;;9.20;99.90;;;;;;5133825;27;19907;-76
2022/01/27 06:32:48;;;;;;;;;;;9.20;99.90;;;;;;5135589;27;19910;-77
2022/01/27 06:35:14;;;;;;;;;;;9.30;99.90;;;;;;5120503;27;19918;-76
2022/01/27 06:37:41;;;;;;;;;;;9.30;99.90;;;;;;5135463;27;19911;-77
2022/01/27 06:40:10;;;;;;;;;;;9.30;99.90;;;;;;5133535;27;19952;-77
2022/01/27 06:42:36;;;;;;;;;;;9.30;99.90;;;;;;5132860;27;19946;-76
2022/01/27 06:45:01;;;;;;;;;;;9.40;99.90;;;;;;5133811;27;19951;-77
2022/01/27 06:47:27;;;;;;;;;;;9.40;99.90;;;;;;5133621;27;19907;-77
2022/01/27 06:49:52;;;;;;;;;;;9.40;99.90;;;;;;5132574;27;19965;-77
2022/01/27 06:52:20;;;;;;;;;;;9.50;99.90;;;;;;5142967;27;19926;-79
2022/01/27 06:54:49;;;;;;;;;;;9.50;99.90;;;;;;5134121;28;19911;-76
2022/01/27 06:57:14;;;;;;;;;;;9.50;99.90;;;;;;5133390;27;19956;-76
2022/01/27 06:59:40;;;;;;;;;;;9.50;99.90;;;;;;5114243;28;19912;-76
2022/01/27 07:02:05;;;;;;;;;;;9.50;99.90;;;;;;5115067;28;19915;-77
2022/01/27 07:04:31;;;;;;;;;;;9.50;99.90;;;;;;5133217;28;20298;-75
2022/01/27 07:06:56;;;;;;;;;;;9.50;99.90;;;;;;5133091;28;19911;-77
2022/01/27 07:09:22;;;;;;;;;;;9.60;99.90;;;;;;5133414;28;19968;-77
2022/01/27 07:11:48;;;;;;;;;;;9.60;99.90;;;;;;5132499;28;19908;-78
2022/01/27 07:14:13;;;;;;;;;;;9.60;99.90;;;;;;5133341;28;20298;-78
2022/01/27 07:16:39;;;;;;;;;;;9.60;99.90;;;;;;5132473;28;19912;-77
2022/01/27 07:19:04;;;;;;;;;;;9.60;99.90;;;;;;5133295;28;20272;-76
2022/01/27 07:21:30;;;;;;;;;;;9.60;99.90;;;;;;5132957;28;19972;-77
2022/01/27 07:23:56;;;;;;;;;;;9.60;99.90;;;;;;5132897;28;19908;-77
2022/01/27 07:26:27;;;;;;;;;;;9.60;99.90;;;;;;5114500;28;19919;-77
2022/01/27 07:28:53;;;;;;;;;;;9.50;99.90;;;;;;5132189;28;19960;-77
2022/01/27 07:31:19;;;;;;;;;;;9.50;99.90;;;;;;5133164;28;19943;-77
2022/01/27 07:33:47;;;;;;;;;;;9.50;99.90;;;;;;5132063;28;19957;-77
2022/01/27 07:36:14;;;;;;;;;;;9.50;99.90;;;;;;5114675;28;20376;-77
2022/01/27 07:38:39;;;;;;;;;;;9.50;99.90;;;;;;5133608;27;20018;-77
2022/01/27 07:41:05;;;;;;;;;;;9.50;99.90;;;;;;5137134;27;20021;-77
2022/01/27 07:43:31;;;;;;;;;;;9.50;99.90;;;;;;5136860;27;19915;-77
2022/01/27 07:45:56;;;;;;;;;;;9.60;99.90;;;;;;5136059;27;19912;-77
2022/01/27 07:48:22;;;;;;;;;;;9.50;99.90;;;;;;5136706;27;19953;-77
2022/01/27 07:50:48;;;;;;;;;;;9.60;99.90;;;;;;5136086;27;20060;-78
2022/01/27 07:53:13;;;;;;;;;;;9.60;99.90;;;;;;5136724;27;19914;-77
2022/01/27 07:55:39;;;;;;;;;;;9.60;99.90;;;;;;5135642;27;19912;-76
2022/01/27 07:58:04;;;;;;;;;;;9.60;99.90;;;;;;5136697;27;19937;-76
2022/01/27 08:00:30;;;;;;;;;;;9.60;99.90;;;;;;5136434;27;19915;-76
2022/01/27 08:02:56;;;;;;;;;;;9.60;99.90;;;;;;5135247;27;20089;-79
2022/01/27 08:05:21;;;;;;;;;;;9.50;99.90;;;;;;5136512;27;19919;-78
2022/01/27 08:07:47;;;;;;;;;;;9.60;99.90;;;;;;5138209;27;19963;-77
2022/01/27 08:10:12;;;;;;;;;;;9.60;99.90;;;;;;5139020;27;19907;-77
2022/01/27 08:12:41;;;;;;;;;;;9.50;99.90;;;;;;5135329;27;19946;-75
2022/01/27 08:15:07;;;;;;;;;;;9.50;99.90;;;;;;5135527;27;19915;-78
2022/01/27 08:17:33;;;;;;;;;;;9.60;99.90;;;;;;5135627;27;20361;-78
2022/01/27 08:19:59;;;;;;;;;;;9.60;99.90;;;;;;5135140;27;19914;-78
2022/01/27 08:22:24;;;;;;;;;;;9.60;99.90;;;;;;5136107;27;19953;-77
2022/01/27 08:24:50;;;;;;;;;;;9.60;99.90;;;;;;5135491;27;19943;-77
2022/01/27 08:27:19;;;;;;;;;;;9.60;99.90;;;;;;5136093;27;19915;-76
2022/01/27 08:29:50;;;;;;;;;;;9.60;99.90;;;;;;5134669;27;19951;-77
2022/01/27 08:32:18;;;;;;;;;;;9.60;99.90;;;;;;5136039;27;19908;-77
2022/01/27 08:34:44;;;;;;;;;;;9.60;99.90;;;;;;5132657;27;20268;-76
2022/01/27 08:37:11;;;;;;;;;;;9.60;99.90;;;;;;5131382;27;19915;-76
2022/01/27 08:39:37;;;;;;;;;;;9.60;99.90;;;;;;5135711;27;20015;-75
2022/01/27 08:42:03;;;;;;;;;;;9.60;99.90;;;;;;5135618;27;19960;-77
2022/01/27 08:44:29;;;;;;;;;;;9.60;99.90;;;;;;5135574;27;19914;-77
2022/01/27 08:46:55;;;;;;;;;;;9.60;99.90;;;;;;5134444;27;19994;-77
2022/01/27 08:49:23;;;;;;;;;;;9.60;99.90;;;;;;5116041;27;19925;-77
2022/01/27 08:51:49;;;;;;;;;;;9.60;99.90;;;;;;5134539;27;19912;-78
2022/01/27 08:54:14;;;;;;;;;;;9.60;99.90;;;;;;5135079;27;20413;-77
2022/01/27 08:56:40;;;;;;;;;;;9.60;99.90;;;;;;5116177;27;19919;-76
2022/01/27 08:59:05;;;;;;;;;;;9.60;99.90;;;;;;5134835;27;20328;-77
2022/01/27 09:01:31;;;;;;;;;;;9.60;99.90;;;;;;5135258;27;19911;-77
2022/01/27 09:03:57;;;;;;;;;;;9.60;99.90;;;;;;5134471;27;19964;-77
2022/01/27 09:06:22;;;;;;;;;;;9.60;99.90;;;;;;5135253;27;19907;-79
2022/01/27 09:08:49;;;;;;;;;;;9.50;99.90;;;;;;5134357;27;19966;-79
2022/01/27 09:11:14;;;;;;;;;;;9.40;99.90;;;;;;5135095;27;19919;-78
2022/01/27 09:13:41;;;;;;;;;;;9.40;99.90;;;;;;5133827;27;20272;-77
2022/01/27 09:16:07;;;;;;;;;;;9.40;99.90;;;;;;5139221;27;19937;-78
2022/01/27 09:18:33;;;;;;;;;;;9.50;99.90;;;;;;5134621;27;19935;-78
2022/01/27 09:21:02;;;;;;;;;;;9.50;99.90;;;;;;5134201;27;19907;-78
2022/01/27 09:23:28;;;;;;;;;;;9.50;99.90;;;;;;5137950;27;20310;-77
2022/01/27 09:26:01;;;;;;;;;;;9.60;99.90;;;;;;5139955;27;19908;-77
2022/01/27 09:28:26;;;;;;;;;;;9.60;99.90;;;;;;5134344;27;20375;-78
2022/01/27 09:30:52;;;;;;;;;;;9.60;99.90;;;;;;5133007;27;19923;-78
2022/01/27 09:33:17;;;;;;;;;;;9.60;99.90;;;;;;5134479;27;19915;-78
2022/01/27 09:35:45;;;;;;;;;;;9.60;99.90;;;;;;5133244;27;19963;-76
2022/01/27 09:38:11;;;;;;;;;;;9.60;99.90;;;;;;5134469;27;19915;-78
2022/01/27 09:40:37;;;;;;;;;;;9.70;99.90;;;;;;5134627;27;19911;-79
2022/01/27 09:43:04;;;;;;;;;;;9.70;99.90;;;;;;5133864;27;19963;-79
2022/01/27 09:45:30;;;;;;;;;;;9.70;99.90;;;;;;5134508;27;20368;-78
2022/01/27 09:48:04;;;;;;;;;;;9.60;99.90;;;;;;5133388;27;19919;-78
2022/01/27 09:50:59;;;;;;;;;;;9.60;99.90;;;;;;5134289;27;19920;-78
2022/01/27 09:53:22;;;;;;;;;;;9.60;99.90;;;;;;5133972;27;19969;-78
2022/01/27 09:55:47;;;;;;;;;;;9.50;99.90;;;;;;5133542;27;19961;-77
2022/01/27 09:58:13;;;;;;;;;;;9.60;99.90;;;;;;5134658;27;19908;-78
2022/01/27 10:00:41;;;;;;;;;;;9.60;99.90;;;;;;5132706;27;20284;-78
2022/01/27 10:03:08;;;;;;;;;;;9.60;99.90;;;;;;5114861;27;19919;-78
2022/01/27 10:05:34;;;;;;;;;;;9.60;99.90;;;;;;5134209;27;19942;-79
2022/01/27 10:08:12;;;;;;;;;;;9.60;99.90;;;;;;5133423;27;19911;-79
2022/01/27 10:10:39;;;;;;;;;;;9.60;99.90;;;;;;5134190;27;19911;-78
2022/01/27 10:13:07;;;;;;;;;;;9.60;99.90;;;;;;5133285;27;19956;-77
2022/01/27 10:15:35;;;;;;;;;;;9.60;99.90;;;;;;5133858;27;19959;-77
2022/01/27 10:18:07;;;;;;;;;;;9.70;99.90;;;;;;5133172;27;20383;-78
2022/01/27 10:20:32;;;;;;;;;;;9.70;99.90;;;;;;5134103;27;20349;-77
2022/01/27 10:23:15;;;;;;;;;;;9.70;99.90;;;;;;5133099;27;19914;-79
2022/01/27 10:25:49;;;;;;;;;;;9.70;99.90;;;;;;5133773;27;20318;-79
2022/01/27 10:31:04;;;;;;;;;;;9.70;99.90;;;;;;5132800;27;19907;-78
2022/01/27 10:33:49;;;;;;;;;;;9.80;99.90;;;;;;5133692;27;19908;-78
2022/01/27 10:36:16;;;;;;;;;;;9.80;99.90;;;;;;5133649;27;19911;-79
2022/01/27 10:38:41;;;;;;;;;;;9.80;99.90;;;;;;5133575;27;19911;-78
2022/01/27 10:41:07;;;;;;;;;;;9.80;99.90;;;;;;5132642;27;20470;-78
2022/01/27 10:43:34;;;;;;;;;;;9.90;99.90;;;;;;5133774;27;19943;-78
2022/01/27 10:46:00;;;;;;;;;;;9.90;99.90;;;;;;5132665;27;20240;-77
2022/01/27 10:48:29;;;;;;;;;;;9.90;99.90;;;;;;5133644;27;20259;-78
2022/01/27 10:51:05;;;;;;;;;;;9.90;99.90;;;;;;5132211;27;19919;-77
2022/01/27 10:53:49;;;;;;;;;;;9.90;99.90;;;;;;5133178;27;20372;-77
2022/01/27 10:56:17;;;;;;;;;;;10.00;99.90;;;;;;5133447;27;19912;-78
2022/01/27 10:58:44;;;;;;;;;;;10.00;99.90;;;;;;5115035;28;19998;-79
2022/01/27 11:01:09;;;;;;;;;;;10.00;99.90;;;;;;5132097;28;20662;-78
2022/01/27 11:03:35;;;;;;;;;;;10.10;99.90;;;;;;5132907;28;19932;-77
2022/01/27 11:06:10;;;;;;;;;;;10.10;99.90;;;;;;5132439;28;19977;-78
2022/01/27 11:08:37;;;;;;;;;;;10.20;99.90;;;;;;5133339;28;19933;-77
2022/01/27 11:11:04;;;;;;;;;;;10.20;99.90;;;;;;5114113;28;19930;-77
2022/01/27 11:13:30;;;;;;;;;;;10.20;99.90;;;;;;5138084;27;19907;-77
2022/01/27 11:15:56;;;;;;;;;;;10.30;99.90;;;;;;5136667;27;19973;-77
2022/01/27 11:18:24;;;;;;;;;;;10.30;99.90;;;;;;5137449;27;20368;-78
2022/01/27 11:26:05;;;;;;;;;;;10.40;99.90;;;;;;5136300;27;19915;-78
2022/01/27 11:28:32;;;;;;;;;;;10.40;99.90;;;;;;5136933;27;20388;-77
2022/01/27 11:31:04;;;;;;;;;;;10.40;99.90;;;;;;5136241;27;20280;-78
2022/01/27 11:33:31;;;;;;;;;;;10.40;99.90;;;;;;5136857;27;19930;-77
2022/01/27 11:36:10;;;;;;;;;;;10.40;99.90;;;;;;5136213;27;19960;-77
2022/01/27 11:38:39;;;;;;;;;;;10.30;99.90;;;;;;5136627;27;19914;-78
2022/01/27 11:41:05;;;;;;;;;;;10.20;99.90;;;;;;5135912;27;19907;-78
2022/01/27 11:43:33;;;;;;;;;;;10.20;99.90;;;;;;5137038;27;19986;-77
2022/01/27 11:46:15;;;;;;;;;;;10.10;99.90;;;;;;5136093;27;19907;-76
2022/01/27 11:48:41;;;;;;;;;;;10.10;99.90;;;;;;5136750;27;19947;-77
2022/01/27 11:51:10;;;;;;;;;;;10.10;99.90;;;;;;5136073;27;20406;-78
2022/01/27 11:53:43;;;;;;;;;;;10.10;99.90;;;;;;5136619;27;19969;-77
2022/01/27 11:56:35;;;;;;;;;;;10.10;99.90;;;;;;5135936;27;19911;-78
2022/01/27 11:59:01;;;;;;;;;;;10.20;99.90;;;;;;5125779;27;19907;-78
2022/01/27 12:01:27;;;;;;;;;;;10.20;99.90;;;;;;5143914;27;20002;-78
2022/01/27 12:04:05;;;;;;;;;;;10.20;99.90;;;;;;5135742;27;19908;-76
2022/01/27 12:06:35;;;;;;;;;;;10.20;99.90;;;;;;5136298;27;19935;-77
2022/01/27 12:09:19;;;;;;;;;;;10.30;99.90;;;;;;5116417;27;20370;-77
2022/01/27 12:11:50;;;;;;;;;;;10.30;99.90;;;;;;5133057;27;19918;-77
2022/01/27 12:14:24;;;;;;;;;;;10.30;99.90;;;;;;5135048;27;19947;-78
2022/01/27 12:17:08;;;;;;;;;;;10.40;99.90;;;;;;5136247;27;20364;-78
2022/01/27 12:19:46;;;;;;;;;;;10.40;99.90;;;;;;5135934;27;19907;-77
2022/01/27 12:22:14;;;;;;;;;;;10.40;99.90;;;;;;5135252;27;19911;-77
2022/01/27 12:24:49;;;;;;;;;;;10.40;99.90;;;;;;5134980;27;19914;-77
2022/01/27 12:27:18;;;;;;;;;;;10.40;99.90;;;;;;5135622;27;20535;-79
2022/01/27 12:29:52;;;;;;;;;;;10.30;99.90;;;;;;5148680;27;19908;-81
2022/01/27 12:32:20;;;;;;;;;;;10.30;99.90;;;;;;5141964;27;19947;-78
2022/01/27 12:34:50;;;;;;;;;;;10.30;99.90;;;;;;5136027;27;19918;-77
2022/01/27 12:37:18;;;;;;;;;;;10.30;99.90;;;;;;5134931;27;19907;-77
2022/01/27 12:39:49;;;;;;;;;;;10.30;99.90;;;;;;5135445;27;19908;-77
2022/01/27 12:42:17;;;;;;;;;;;10.40;99.90;;;;;;5134923;27;19911;-76
2022/01/27 12:45:02;;;;;;;;;;;10.40;99.90;;;;;;5135327;27;19960;-77
2022/01/27 12:47:30;;;;;;;;;;;10.40;99.90;;;;;;5150839;27;19895;-78
2022/01/27 12:50:04;;;;;;;;;;;10.40;99.90;;;;;;5141581;27;20067;-76
2022/01/27 12:52:33;;;;;;;;;;;10.40;99.90;;;;;;5135870;27;19908;-77
2022/01/27 12:54:59;;;;;;;;;;;10.40;99.90;;;;;;5134769;27;19911;-78
2022/01/27 12:57:28;;;;;;;;;;;10.40;99.90;;;;;;5135616;27;19917;-78
2022/01/27 12:59:55;;;;;;;;;;;10.50;99.90;;;;;;5135527;27;19956;-77
2022/01/27 13:02:22;;;;;;;;;;;10.50;99.90;;;;;;5134211;27;19968;-77
2022/01/27 13:04:49;;;;;;;;;;;10.50;99.90;;;;;;5134699;27;19914;-78
2022/01/27 13:07:15;;;;;;;;;;;10.50;99.90;;;;;;5134527;27;19911;-77
2022/01/27 13:09:40;;;;;;;;;;;10.60;99.90;;;;;;5134985;27;19912;-77
2022/01/27 13:12:10;;;;;;;;;;;10.50;99.90;;;;;;5115672;27;20355;-78
2022/01/27 13:14:46;;;;;;;;;;;10.60;99.90;;;;;;5134953;27;19915;-78
2022/01/27 13:17:18;;;;;;;;;;;10.60;99.90;;;;;;5134105;27;20002;-76
2022/01/27 13:19:48;;;;;;;;;;;10.60;99.90;;;;;;5135025;27;19916;-77
2022/01/27 13:22:21;;;;;;;;;;;10.60;99.90;;;;;;5133967;27;20359;-77
2022/01/27 13:24:48;;;;;;;;;;;10.70;99.90;;;;;;5134942;27;19908;-78
2022/01/27 13:27:14;;;;;;;;;;;10.70;99.90;;;;;;5133801;27;19907;-77
2022/01/27 13:29:40;;;;;;;;;;;10.80;99.90;;;;;;5116410;27;19907;-77
2022/01/27 13:32:07;;;;;;;;;;;10.90;99.90;;;;;;5134238;27;19915;-78
2022/01/27 13:34:33;;;;;;;;;;;11.10;99.90;;;;;;5134203;27;20010;-78
2022/01/27 13:37:00;;;;;;;;;;;11.10;99.90;;;;;;5134129;27;19918;-75
2022/01/27 13:41:16;;;;;;;;;;;11.20;99.90;;;;;;5134353;27;19908;-78
2022/01/27 13:42:23;;;;;;;;;;;11.20;99.90;;;;;;5133500;27;19907;-78
2022/01/27 13:44:58;;;;;;;;;;;11.10;99.90;;;;;;5134851;27;19915;-78
2022/01/27 13:47:29;;;;;;;;;;;11.10;99.90;;;;;;5133481;27;19919;-77
2022/01/27 13:50:08;;;;;;;;;;;11.10;99.90;;;;;;5147004;27;20014;-77
2022/01/27 13:52:40;;;;;;;;;;;11.10;99.90;;;;;;5136641;27;20345;-76
2022/01/27 13:55:07;;;;;;;;;;;11.00;99.90;;;;;;5133467;27;19964;-78
2022/01/27 13:57:35;;;;;;;;;;;11.10;99.90;;;;;;5134402;27;19918;-78
2022/01/27 14:00:08;;;;;;;;;;;11.10;99.90;;;;;;5133770;27;19954;-76
2022/01/27 14:02:35;;;;;;;;;;;11.20;99.90;;;;;;5134258;27;19908;-77
2022/01/27 14:05:09;;;;;;;;;;;11.20;99.90;;;;;;5132944;27;20352;-76
2022/01/27 14:07:36;;;;;;;;;;;11.20;99.90;;;;;;5133921;27;19908;-78
2022/01/27 14:10:08;;;;;;;;;;;11.20;99.90;;;;;;5115015;27;19954;-76
2022/01/27 14:12:58;;;;;;;;;;;11.20;99.90;;;;;;5133753;27;20002;-77
2022/01/27 14:15:29;;;;;;;;;;;11.10;99.90;;;;;;5133078;27;19954;-77
2022/01/27 14:17:56;;;;;;;;;;;11.10;99.90;;;;;;5133586;27;19911;-78
2022/01/27 14:20:22;;;;;;;;;;;11.10;99.90;;;;;;5133125;27;19907;-77
2022/01/27 14:23:00;;;;;;;;;;;11.10;99.90;;;;;;5115326;27;19956;-79
2022/01/27 14:25:35;;;;;;;;;;;11.10;99.90;;;;;;5132900;27;19914;-78
2022/01/27 14:28:00;;;;;;;;;;;11.10;99.90;;;;;;5133629;27;19911;-75
2022/01/27 14:30:26;;;;;;;;;;;11.10;99.90;;;;;;5132838;27;20265;-77
2022/01/27 14:32:52;;;;;;;;;;;11.10;99.90;;;;;;5133735;27;19915;-77
2022/01/27 14:35:17;;;;;;;;;;;11.10;99.90;;;;;;5132512;27;19911;-77
2022/01/27 14:37:43;;;;;;;;;;;11.10;99.90;;;;;;5133269;27;20332;-76
2022/01/27 14:40:13;;;;;;;;;;;11.10;99.90;;;;;;5132621;27;20383;-76
2022/01/27 14:42:39;;;;;;;;;;;11.10;99.90;;;;;;5133576;27;19924;-76
2022/01/27 14:45:08;;;;;;;;;;;11.10;99.90;;;;;;5132885;27;19914;-76
2022/01/27 14:47:41;;;;;;;;;;;11.10;99.90;;;;;;5132900;27;19914;-77
2022/01/27 14:50:07;;;;;;;;;;;11.00;99.90;;;;;;5132344;27;20369;-76
2022/01/27 14:52:32;;;;;;;;;;;11.10;99.90;;;;;;5133044;27;19959;-77
2022/01/27 14:54:58;;;;;;;;;;;11.10;99.90;;;;;;5133190;27;20306;-77
2022/01/27 14:57:24;;;;;;;;;;;11.10;99.90;;;;;;5132503;27;19908;-76
2022/01/27 14:59:49;;;;;;;;;;;11.10;99.90;;;;;;5133295;27;19907;-77
2022/01/27 15:02:15;;;;;;;;;;;11.00;99.90;;;;;;5132110;28;19981;-77